sensor_id;sensor_type;location;lat;lon;timestamp;pressure;altitude;pressure_sealevel;temperature;humidity
41945;BME280;63122;52.424;13.458;2022-09-17T00:01:46;99565.81;;;12.23;83.24
41945;BME280;63122;52.424;13.458;2022-09-17T00:04:34;99564.25;;;12.07;83.82
41945;BME280;63122;52.424;13.458;2022-09-17T00:07:11;99570.94;;;12.03;84.35
41945;BME280;63122;52.424;13.458;2022-09-17T00:09:48;99581.97;;;12.29;83.83
41945;BME280;63122;52.424;13.458;2022-09-17T00:12:20;99579.75;;;11.74;85.31
41945;BME280;63122;52.424;13.458;2022-09-17T00:14:56;99585.09;;;11.80;86.26
41945;BME280;63122;52.424;13.458;2022-09-17T00:17:31;99589.34;;;11.81;85.15
41945;BME280;63122;52.424;13.458;2022-09-17T00:20:18;99580.72;;;11.88;85.89
41945;BME280;63122;52.424;13.458;2022-09-17T00:22:50;99586.47;;;12.13;83.94
41945;BME280;63122;52.424;13.458;2022-09-17T00:25:22;99585.78;;;12.04;84.24
41945;BME280;63122;52.424;13.458;2022-09-17T00:27:57;99591.91;;;12.05;84.94
41945;BME280;63122;52.424;13.458;2022-09-17T00:30:31;99594.97;;;12.08;84.15
41945;BME280;63122;52.424;13.458;2022-09-17T00:33:03;99593.84;;;12.18;83.31
41945;BME280;63122;52.424;13.458;2022-09-17T00:35:34;99603.75;;;11.94;84.24
41945;BME280;63122;52.424;13.458;2022-09-17T00:38:04;99603.84;;;12.01;84.00
41945;BME280;63122;52.424;13.458;2022-09-17T00:40:35;99605.13;;;12.05;83.82
41945;BME280;63122;52.424;13.458;2022-09-17T00:43:09;99605.81;;;11.99;84.42
41945;BME280;63122;52.424;13.458;2022-09-17T00:45:40;99597.06;;;12.13;83.89
41945;BME280;63122;52.424;13.458;2022-09-17T00:48:20;99606.75;;;12.06;84.53
41945;BME280;63122;52.424;13.458;2022-09-17T00:50:51;99609.38;;;12.28;83.04
41945;BME280;63122;52.424;13.458;2022-09-17T00:53:21;99609.41;;;12.06;84.22
41945;BME280;63122;52.424;13.458;2022-09-17T00:55:56;99601.84;;;12.03;84.54
41945;BME280;63122;52.424;13.458;2022-09-17T00:58:28;99605.28;;;12.03;83.78
41945;BME280;63122;52.424;13.458;2022-09-17T01:01:07;99608.16;;;11.87;85.66
41945;BME280;63122;52.424;13.458;2022-09-17T01:04:00;99618.88;;;11.85;85.95
41945;BME280;63122;52.424;13.458;2022-09-17T01:06:33;99630.09;;;12.02;85.47
41945;BME280;63122;52.424;13.458;2022-09-17T01:09:16;99628.09;;;12.26;84.00
41945;BME280;63122;52.424;13.458;2022-09-17T01:12:02;99619.91;;;12.21;83.57
41945;BME280;63122;52.424;13.458;2022-09-17T01:14:46;99625.31;;;12.13;84.75
41945;BME280;63122;52.424;13.458;2022-09-17T01:17:27;99626.69;;;11.93;85.21
41945;BME280;63122;52.424;13.458;2022-09-17T01:20:27;99632.06;;;12.00;84.88
41945;BME280;63122;52.424;13.458;2022-09-17T01:23:27;99633.72;;;12.01;85.17
41945;BME280;63122;52.424;13.458;2022-09-17T01:26:10;99633.09;;;12.36;83.33
41945;BME280;63122;52.424;13.458;2022-09-17T01:28:51;99644.84;;;12.33;82.69
41945;BME280;63122;52.424;13.458;2022-09-17T01:31:32;99653.78;;;12.32;83.87
41945;BME280;63122;52.424;13.458;2022-09-17T01:34:13;99644.72;;;12.20;83.44
41945;BME280;63122;52.424;13.458;2022-09-17T01:36:59;99644.25;;;12.16;83.97
41945;BME280;63122;52.424;13.458;2022-09-17T01:39:38;99642.97;;;12.27;83.47
41945;BME280;63122;52.424;13.458;2022-09-17T01:42:19;99641.09;;;12.43;83.09
41945;BME280;63122;52.424;13.458;2022-09-17T01:44:56;99636.28;;;12.31;82.95
41945;BME280;63122;52.424;13.458;2022-09-17T01:47:34;99637.78;;;12.41;83.04
41945;BME280;63122;52.424;13.458;2022-09-17T01:50:08;99638.06;;;12.46;82.90
41945;BME280;63122;52.424;13.458;2022-09-17T01:52:42;99638.06;;;12.46;81.97
41945;BME280;63122;52.424;13.458;2022-09-17T01:55:17;99641.44;;;12.39;82.85
41945;BME280;63122;52.424;13.458;2022-09-17T01:57:53;99638.78;;;12.61;82.81
41945;BME280;63122;52.424;13.458;2022-09-17T02:00:24;99639.72;;;12.75;81.09
41945;BME280;63122;52.424;13.458;2022-09-17T02:02:59;99640.94;;;12.29;82.92
41945;BME280;63122;52.424;13.458;2022-09-17T02:05:34;99652.47;;;12.43;83.00
41945;BME280;63122;52.424;13.458;2022-09-17T02:08:09;99649.00;;;12.21;83.98
41945;BME280;63122;52.424;13.458;2022-09-17T02:10:44;99656.13;;;12.05;85.67
41945;BME280;63122;52.424;13.458;2022-09-17T02:13:19;99665.34;;;12.09;85.81
41945;BME280;63122;52.424;13.458;2022-09-17T02:15:56;99661.88;;;12.09;85.80
41945;BME280;63122;52.424;13.458;2022-09-17T02:18:36;99665.63;;;12.15;86.09
41945;BME280;63122;52.424;13.458;2022-09-17T02:21:13;99676.56;;;12.33;84.87
41945;BME280;63122;52.424;13.458;2022-09-17T02:23:49;99664.69;;;12.07;85.76
41945;BME280;63122;52.424;13.458;2022-09-17T02:26:21;99672.47;;;12.09;85.46
41945;BME280;63122;52.424;13.458;2022-09-17T02:28:55;99670.25;;;12.13;86.34
41945;BME280;63122;52.424;13.458;2022-09-17T02:31:27;99654.97;;;12.08;86.65
41945;BME280;63122;52.424;13.458;2022-09-17T02:34:01;99668.22;;;12.30;86.20
41945;BME280;63122;52.424;13.458;2022-09-17T02:36:33;99663.25;;;12.05;86.88
41945;BME280;63122;52.424;13.458;2022-09-17T02:39:03;99666.00;;;11.81;88.16
41945;BME280;63122;52.424;13.458;2022-09-17T02:41:40;99658.78;;;12.05;88.03
41945;BME280;63122;52.424;13.458;2022-09-17T02:44:23;99663.31;;;12.12;87.29
41945;BME280;63122;52.424;13.458;2022-09-17T02:47:12;99665.50;;;12.23;86.56
41945;BME280;63122;52.424;13.458;2022-09-17T02:50:11;99673.94;;;12.33;86.34
41945;BME280;63122;52.424;13.458;2022-09-17T02:52:56;99658.53;;;12.37;85.70
41945;BME280;63122;52.424;13.458;2022-09-17T02:55:36;99661.72;;;12.32;85.33
41945;BME280;63122;52.424;13.458;2022-09-17T02:58:16;99662.66;;;12.24;86.16
41945;BME280;63122;52.424;13.458;2022-09-17T03:00:47;99663.22;;;12.20;86.00
41945;BME280;63122;52.424;13.458;2022-09-17T03:03:22;99655.97;;;12.07;87.23
41945;BME280;63122;52.424;13.458;2022-09-17T03:05:55;99658.88;;;12.12;86.52
41945;BME280;63122;52.424;13.458;2022-09-17T03:08:28;99651.09;;;12.10;86.69
41945;BME280;63122;52.424;13.458;2022-09-17T03:10:59;99645.44;;;11.99;86.68
41945;BME280;63122;52.424;13.458;2022-09-17T03:13:30;99648.94;;;11.99;87.21
41945;BME280;63122;52.424;13.458;2022-09-17T03:16:01;99657.63;;;12.30;85.96
41945;BME280;63122;52.424;13.458;2022-09-17T03:18:31;99650.00;;;12.63;83.49
41945;BME280;63122;52.424;13.458;2022-09-17T03:21:04;99656.56;;;12.24;84.46
41945;BME280;63122;52.424;13.458;2022-09-17T03:23:35;99650.00;;;12.42;85.03
41945;BME280;63122;52.424;13.458;2022-09-17T03:26:06;99652.09;;;12.46;84.07
41945;BME280;63122;52.424;13.458;2022-09-17T03:28:35;99648.13;;;12.35;84.43
41945;BME280;63122;52.424;13.458;2022-09-17T03:31:05;99650.94;;;12.56;84.31
41945;BME280;63122;52.424;13.458;2022-09-17T03:33:35;99653.84;;;12.39;84.97
41945;BME280;63122;52.424;13.458;2022-09-17T03:36:08;99651.22;;;12.61;83.65
41945;BME280;63122;52.424;13.458;2022-09-17T03:38:38;99653.72;;;12.47;83.34
41945;BME280;63122;52.424;13.458;2022-09-17T03:41:08;99642.75;;;12.50;83.37
41945;BME280;63122;52.424;13.458;2022-09-17T03:43:38;99645.00;;;12.47;84.40
41945;BME280;63122;52.424;13.458;2022-09-17T03:46:08;99643.97;;;12.48;82.86
41945;BME280;63122;52.424;13.458;2022-09-17T03:48:38;99659.00;;;12.26;84.10
41945;BME280;63122;52.424;13.458;2022-09-17T03:51:11;99655.00;;;12.30;84.39
41945;BME280;63122;52.424;13.458;2022-09-17T03:53:41;99656.44;;;12.54;83.38
41945;BME280;63122;52.424;13.458;2022-09-17T03:56:10;99668.09;;;12.60;81.90
41945;BME280;63122;52.424;13.458;2022-09-17T03:58:40;99659.06;;;12.32;83.42
41945;BME280;63122;52.424;13.458;2022-09-17T04:01:10;99670.03;;;12.29;84.26
41945;BME280;63122;52.424;13.458;2022-09-17T04:03:41;99663.59;;;12.17;84.53
41945;BME280;63122;52.424;13.458;2022-09-17T04:06:14;99676.78;;;12.32;84.44
41945;BME280;63122;52.424;13.458;2022-09-17T04:08:44;99665.75;;;12.50;83.23
41945;BME280;63122;52.424;13.458;2022-09-17T04:11:14;99663.47;;;12.68;82.20
41945;BME280;63122;52.424;13.458;2022-09-17T04:13:44;99665.25;;;12.83;81.71
41945;BME280;63122;52.424;13.458;2022-09-17T04:16:14;99667.31;;;13.16;79.81
41945;BME280;63122;52.424;13.458;2022-09-17T04:18:44;99662.66;;;12.90;80.26
41945;BME280;63122;52.424;13.458;2022-09-17T04:21:17;99669.03;;;12.74;81.09
41945;BME280;63122;52.424;13.458;2022-09-17T04:23:47;99670.91;;;12.58;82.10
41945;BME280;63122;52.424;13.458;2022-09-17T04:26:17;99674.28;;;12.67;82.27
41945;BME280;63122;52.424;13.458;2022-09-17T04:28:46;99673.78;;;12.57;81.93
41945;BME280;63122;52.424;13.458;2022-09-17T04:31:17;99668.41;;;12.50;82.35
41945;BME280;63122;52.424;13.458;2022-09-17T04:33:48;99678.03;;;12.79;81.19
41945;BME280;63122;52.424;13.458;2022-09-17T04:36:21;99671.34;;;12.84;80.25
41945;BME280;63122;52.424;13.458;2022-09-17T04:38:50;99668.91;;;12.82;80.61
41945;BME280;63122;52.424;13.458;2022-09-17T04:41:21;99666.56;;;12.50;81.75
41945;BME280;63122;52.424;13.458;2022-09-17T04:43:50;99672.00;;;12.42;82.24
41945;BME280;63122;52.424;13.458;2022-09-17T04:46:20;99677.47;;;12.62;81.73
41945;BME280;63122;52.424;13.458;2022-09-17T04:48:50;99679.34;;;12.68;81.25
41945;BME280;63122;52.424;13.458;2022-09-17T04:51:26;99678.31;;;12.85;80.44
41945;BME280;63122;52.424;13.458;2022-09-17T04:53:56;99680.59;;;12.94;80.07
41945;BME280;63122;52.424;13.458;2022-09-17T04:56:26;99685.50;;;12.98;79.59
41945;BME280;63122;52.424;13.458;2022-09-17T04:58:55;99686.72;;;12.95;80.11
41945;BME280;63122;52.424;13.458;2022-09-17T05:01:25;99685.97;;;12.79;80.36
41945;BME280;63122;52.424;13.458;2022-09-17T05:03:55;99687.72;;;12.94;80.25
41945;BME280;63122;52.424;13.458;2022-09-17T05:06:28;99693.16;;;12.86;80.65
41945;BME280;63122;52.424;13.458;2022-09-17T05:08:58;99700.72;;;12.89;80.40
41945;BME280;63122;52.424;13.458;2022-09-17T05:11:28;99703.00;;;12.70;81.38
41945;BME280;63122;52.424;13.458;2022-09-17T05:13:58;99700.34;;;12.70;81.06
41945;BME280;63122;52.424;13.458;2022-09-17T05:16:28;99699.00;;;12.59;82.00
41945;BME280;63122;52.424;13.458;2022-09-17T05:18:59;99706.78;;;12.61;81.87
41945;BME280;63122;52.424;13.458;2022-09-17T05:21:32;99704.38;;;12.88;81.28
41945;BME280;63122;52.424;13.458;2022-09-17T05:24:03;99705.88;;;12.97;80.61
41945;BME280;63122;52.424;13.458;2022-09-17T05:26:33;99700.91;;;12.87;80.76
41945;BME280;63122;52.424;13.458;2022-09-17T05:29:03;99703.09;;;12.84;81.05
41945;BME280;63122;52.424;13.458;2022-09-17T05:31:33;99706.69;;;12.98;80.07
41945;BME280;63122;52.424;13.458;2022-09-17T05:34:03;99709.84;;;12.86;80.80
41945;BME280;63122;52.424;13.458;2022-09-17T05:36:36;99716.16;;;12.85;81.20
41945;BME280;63122;52.424;13.458;2022-09-17T05:39:06;99712.38;;;12.73;81.79
41945;BME280;63122;52.424;13.458;2022-09-17T05:41:36;99712.25;;;12.81;81.72
41945;BME280;63122;52.424;13.458;2022-09-17T05:44:06;99711.31;;;12.67;82.10
41945;BME280;63122;52.424;13.458;2022-09-17T05:46:36;99709.38;;;12.76;81.99
41945;BME280;63122;52.424;13.458;2022-09-17T05:49:06;99716.63;;;13.17;80.26
41945;BME280;63122;52.424;13.458;2022-09-17T05:51:38;99711.34;;;12.95;80.94
41945;BME280;63122;52.424;13.458;2022-09-17T05:54:08;99711.84;;;13.06;80.49
41945;BME280;63122;52.424;13.458;2022-09-17T05:56:38;99720.03;;;13.11;80.38
41945;BME280;63122;52.424;13.458;2022-09-17T05:59:08;99723.94;;;13.15;80.25
41945;BME280;63122;52.424;13.458;2022-09-17T06:01:38;99722.84;;;13.03;80.87
41945;BME280;63122;52.424;13.458;2022-09-17T06:04:09;99719.66;;;12.92;81.53
41945;BME280;63122;52.424;13.458;2022-09-17T06:06:42;99722.28;;;12.86;82.86
41945;BME280;63122;52.424;13.458;2022-09-17T06:09:12;99719.03;;;13.12;81.61
41945;BME280;63122;52.424;13.458;2022-09-17T06:11:42;99722.31;;;12.92;82.70
41945;BME280;63122;52.424;13.458;2022-09-17T06:14:13;99726.66;;;13.22;82.46
41945;BME280;63122;52.424;13.458;2022-09-17T06:16:43;99728.13;;;13.31;81.66
41945;BME280;63122;52.424;13.458;2022-09-17T06:19:13;99726.50;;;13.02;81.82
41945;BME280;63122;52.424;13.458;2022-09-17T06:21:45;99733.91;;;13.13;81.42
41945;BME280;63122;52.424;13.458;2022-09-17T06:24:16;99731.41;;;13.05;80.85
41945;BME280;63122;52.424;13.458;2022-09-17T06:26:46;99739.19;;;13.13;81.17
41945;BME280;63122;52.424;13.458;2022-09-17T06:29:17;99736.81;;;12.96;81.58
41945;BME280;63122;52.424;13.458;2022-09-17T06:31:46;99736.94;;;12.66;82.36
41945;BME280;63122;52.424;13.458;2022-09-17T06:34:17;99733.69;;;12.86;82.53
41945;BME280;63122;52.424;13.458;2022-09-17T06:36:50;99737.16;;;12.87;81.93
41945;BME280;63122;52.424;13.458;2022-09-17T06:39:19;99746.03;;;12.79;82.80
41945;BME280;63122;52.424;13.458;2022-09-17T06:41:50;99742.94;;;12.97;80.94
41945;BME280;63122;52.424;13.458;2022-09-17T06:44:20;99751.56;;;12.84;81.08
41945;BME280;63122;52.424;13.458;2022-09-17T06:46:53;99743.75;;;12.76;81.21
41945;BME280;63122;52.424;13.458;2022-09-17T06:49:27;99740.28;;;12.75;81.75
41945;BME280;63122;52.424;13.458;2022-09-17T06:51:59;99756.63;;;12.79;80.72
41945;BME280;63122;52.424;13.458;2022-09-17T06:54:30;99756.81;;;12.99;79.56
41945;BME280;63122;52.424;13.458;2022-09-17T06:57:00;99749.47;;;12.79;79.23
41945;BME280;63122;52.424;13.458;2022-09-17T06:59:30;99755.47;;;12.88;79.14
41945;BME280;63122;52.424;13.458;2022-09-17T07:02:00;99765.06;;;12.89;79.29
41945;BME280;63122;52.424;13.458;2022-09-17T07:04:30;99757.41;;;13.23;76.75
41945;BME280;63122;52.424;13.458;2022-09-17T07:07:02;99753.91;;;13.16;75.91
41945;BME280;63122;52.424;13.458;2022-09-17T07:09:32;99757.97;;;13.18;75.91
41945;BME280;63122;52.424;13.458;2022-09-17T07:12:06;99755.56;;;13.23;75.72
41945;BME280;63122;52.424;13.458;2022-09-17T07:14:36;99754.31;;;13.19;75.16
41945;BME280;63122;52.424;13.458;2022-09-17T07:17:06;99759.13;;;13.09;75.26
41945;BME280;63122;52.424;13.458;2022-09-17T07:19:36;99762.03;;;13.14;75.16
41945;BME280;63122;52.424;13.458;2022-09-17T07:22:09;99762.84;;;13.15;75.14
41945;BME280;63122;52.424;13.458;2022-09-17T07:24:39;99751.75;;;13.04;75.39
41945;BME280;63122;52.424;13.458;2022-09-17T07:27:10;99755.09;;;13.13;74.76
41945;BME280;63122;52.424;13.458;2022-09-17T07:29:39;99756.31;;;13.39;74.13
41945;BME280;63122;52.424;13.458;2022-09-17T07:32:09;99757.59;;;13.43;73.46
41945;BME280;63122;52.424;13.458;2022-09-17T07:34:40;99753.84;;;13.37;73.71
41945;BME280;63122;52.424;13.458;2022-09-17T07:37:12;99752.75;;;13.25;74.21
41945;BME280;63122;52.424;13.458;2022-09-17T07:39:43;99755.22;;;13.27;73.43
41945;BME280;63122;52.424;13.458;2022-09-17T07:42:13;99750.69;;;12.99;74.33
41945;BME280;63122;52.424;13.458;2022-09-17T07:44:49;99749.41;;;13.16;74.12
41945;BME280;63122;52.424;13.458;2022-09-17T07:47:28;99753.59;;;13.32;73.36
41945;BME280;63122;52.424;13.458;2022-09-17T07:49:59;99751.03;;;13.39;73.52
41945;BME280;63122;52.424;13.458;2022-09-17T07:52:31;99750.31;;;13.52;72.18
41945;BME280;63122;52.424;13.458;2022-09-17T07:55:34;99740.53;;;13.52;72.11
41945;BME280;63122;52.424;13.458;2022-09-17T07:58:10;99755.47;;;13.60;72.26
41945;BME280;63122;52.424;13.458;2022-09-17T08:00:41;99751.41;;;13.58;72.51
41945;BME280;63122;52.424;13.458;2022-09-17T08:03:14;99758.34;;;13.59;71.80
41945;BME280;63122;52.424;13.458;2022-09-17T08:05:44;99759.03;;;13.74;71.27
41945;BME280;63122;52.424;13.458;2022-09-17T08:08:17;99751.78;;;13.55;71.62
41945;BME280;63122;52.424;13.458;2022-09-17T08:10:47;99743.22;;;13.59;70.28
41945;BME280;63122;52.424;13.458;2022-09-17T08:13:19;99751.03;;;13.67;70.89
41945;BME280;63122;52.424;13.458;2022-09-17T08:15:50;99754.38;;;13.83;69.96
41945;BME280;63122;52.424;13.458;2022-09-17T08:18:21;99747.81;;;14.14;68.94
41945;BME280;63122;52.424;13.458;2022-09-17T08:20:54;99751.06;;;13.74;69.34
41945;BME280;63122;52.424;13.458;2022-09-17T08:23:28;99750.28;;;13.74;70.14
41945;BME280;63122;52.424;13.458;2022-09-17T08:26:00;99742.31;;;13.74;68.77
41945;BME280;63122;52.424;13.458;2022-09-17T08:28:30;99757.34;;;13.66;68.54
41945;BME280;63122;52.424;13.458;2022-09-17T08:31:08;99748.97;;;13.63;69.57
41945;BME280;63122;52.424;13.458;2022-09-17T08:33:56;99761.94;;;13.86;69.30
41945;BME280;63122;52.424;13.458;2022-09-17T08:36:28;99764.25;;;13.96;68.03
41945;BME280;63122;52.424;13.458;2022-09-17T08:39:02;99755.53;;;14.09;68.01
41945;BME280;63122;52.424;13.458;2022-09-17T08:41:48;99773.44;;;14.00;67.15
41945;BME280;63122;52.424;13.458;2022-09-17T08:44:30;99761.28;;;13.77;67.12
41945;BME280;63122;52.424;13.458;2022-09-17T08:47:10;99756.59;;;13.79;67.48
41945;BME280;63122;52.424;13.458;2022-09-17T08:49:48;99756.59;;;13.73;67.17
41945;BME280;63122;52.424;13.458;2022-09-17T08:52:45;99764.59;;;13.86;67.73
41945;BME280;63122;52.424;13.458;2022-09-17T08:55:27;99756.34;;;14.03;65.92
41945;BME280;63122;52.424;13.458;2022-09-17T08:58:16;99756.59;;;14.21;64.79
41945;BME280;63122;52.424;13.458;2022-09-17T09:00:52;99763.03;;;14.40;62.92
41945;BME280;63122;52.424;13.458;2022-09-17T09:03:33;99764.19;;;14.31;63.49
41945;BME280;63122;52.424;13.458;2022-09-17T09:06:05;99752.03;;;14.57;63.76
41945;BME280;63122;52.424;13.458;2022-09-17T09:08:40;99765.59;;;14.76;60.42
41945;BME280;63122;52.424;13.458;2022-09-17T09:11:16;99762.22;;;14.47;61.85
41945;BME280;63122;52.424;13.458;2022-09-17T09:13:50;99778.28;;;14.32;62.24
41945;BME280;63122;52.424;13.458;2022-09-17T09:16:23;99783.56;;;14.74;61.74
41945;BME280;63122;52.424;13.458;2022-09-17T09:19:00;99775.84;;;14.86;60.49
41945;BME280;63122;52.424;13.458;2022-09-17T09:21:43;99787.69;;;14.90;60.57
41945;BME280;63122;52.424;13.458;2022-09-17T09:24:22;99786.50;;;14.50;61.96
41945;BME280;63122;52.424;13.458;2022-09-17T09:26:59;99784.72;;;14.64;63.65
41945;BME280;63122;52.424;13.458;2022-09-17T09:29:40;99789.75;;;15.08;61.73
41945;BME280;63122;52.424;13.458;2022-09-17T09:32:20;99794.66;;;15.45;60.76
41945;BME280;63122;52.424;13.458;2022-09-17T09:34:54;99790.78;;;15.61;59.47
41945;BME280;63122;52.424;13.458;2022-09-17T09:37:26;99790.38;;;15.37;58.43
41945;BME280;63122;52.424;13.458;2022-09-17T09:40:03;99791.19;;;15.24;57.38
41945;BME280;63122;52.424;13.458;2022-09-17T09:42:38;99799.53;;;15.07;57.46
41945;BME280;63122;52.424;13.458;2022-09-17T09:45:13;99803.22;;;14.93;58.06
41945;BME280;63122;52.424;13.458;2022-09-17T09:47:52;99794.47;;;15.13;58.06
41945;BME280;63122;52.424;13.458;2022-09-17T09:50:34;99799.16;;;15.17;57.94
41945;BME280;63122;52.424;13.458;2022-09-17T09:53:36;99795.63;;;14.83;58.90
41945;BME280;63122;52.424;13.458;2022-09-17T09:56:27;99802.78;;;14.89;59.06
41945;BME280;63122;52.424;13.458;2022-09-17T09:59:05;99795.59;;;14.76;59.19
41945;BME280;63122;52.424;13.458;2022-09-17T10:01:39;99798.31;;;14.90;59.02
41945;BME280;63122;52.424;13.458;2022-09-17T10:04:17;99799.72;;;14.99;58.95
41945;BME280;63122;52.424;13.458;2022-09-17T10:06:50;99809.59;;;15.25;58.83
41945;BME280;63122;52.424;13.458;2022-09-17T10:09:20;99808.56;;;15.33;58.55
41945;BME280;63122;52.424;13.458;2022-09-17T10:12:13;99819.59;;;15.17;61.99
41945;BME280;63122;52.424;13.458;2022-09-17T10:14:46;99823.28;;;15.29;61.82
41945;BME280;63122;52.424;13.458;2022-09-17T10:17:20;99822.22;;;14.96;61.74
41945;BME280;63122;52.424;13.458;2022-09-17T10:20:12;99817.28;;;14.87;63.52
41945;BME280;63122;52.424;13.458;2022-09-17T10:22:48;99820.34;;;14.83;63.86
41945;BME280;63122;52.424;13.458;2022-09-17T10:25:27;99811.97;;;14.80;63.42
41945;BME280;63122;52.424;13.458;2022-09-17T10:28:00;99815.84;;;14.84;63.28
41945;BME280;63122;52.424;13.458;2022-09-17T10:30:34;99822.44;;;15.15;61.94
41945;BME280;63122;52.424;13.458;2022-09-17T10:33:16;99815.31;;;15.43;60.57
41945;BME280;63122;52.424;13.458;2022-09-17T10:36:00;99815.09;;;15.91;57.42
41945;BME280;63122;52.424;13.458;2022-09-17T10:38:35;99818.34;;;15.80;57.16
41945;BME280;63122;52.424;13.458;2022-09-17T10:41:10;99815.09;;;15.91;54.80
41945;BME280;63122;52.424;13.458;2022-09-17T10:43:41;99823.03;;;16.11;53.52
41945;BME280;63122;52.424;13.458;2022-09-17T10:46:18;99819.59;;;15.91;55.67
41945;BME280;63122;52.424;13.458;2022-09-17T10:49:21;99818.19;;;15.54;56.44
41945;BME280;63122;52.424;13.458;2022-09-17T10:52:24;99827.34;;;15.86;55.09
41945;BME280;63122;52.424;13.458;2022-09-17T10:55:17;99826.97;;;15.62;55.53
41945;BME280;63122;52.424;13.458;2022-09-17T10:58:20;99832.88;;;15.97;54.86
41945;BME280;63122;52.424;13.458;2022-09-17T11:10:32;99833.28;;;15.14;57.45
41945;BME280;63122;52.424;13.458;2022-09-17T11:13:27;99840.06;;;15.57;55.25
41945;BME280;63122;52.424;13.458;2022-09-17T11:20:23;99832.88;;;15.64;53.01
41945;BME280;63122;52.424;13.458;2022-09-17T11:23:12;99847.59;;;15.26;54.38
41945;BME280;63122;52.424;13.458;2022-09-17T11:25:51;99837.34;;;15.03;54.79
41945;BME280;63122;52.424;13.458;2022-09-17T11:28:48;99829.59;;;15.28;55.36
41945;BME280;63122;52.424;13.458;2022-09-17T11:31:30;99825.94;;;15.43;54.12
41945;BME280;63122;52.424;13.458;2022-09-17T11:34:28;99825.75;;;15.91;52.83
41945;BME280;63122;52.424;13.458;2022-09-17T11:37:08;99834.47;;;16.25;51.46
41945;BME280;63122;52.424;13.458;2022-09-17T11:39:44;99833.69;;;16.11;52.09
41945;BME280;63122;52.424;13.458;2022-09-17T11:42:18;99841.47;;;16.00;53.01
41945;BME280;63122;52.424;13.458;2022-09-17T11:44:52;99833.28;;;15.47;53.90
41945;BME280;63122;52.424;13.458;2022-09-17T11:47:28;99816.72;;;15.45;54.29
41945;BME280;63122;52.424;13.458;2022-09-17T11:50:03;99818.78;;;15.43;53.46
41945;BME280;63122;52.424;13.458;2022-09-17T11:52:50;99811.00;;;15.62;53.27
41945;BME280;63122;52.424;13.458;2022-09-17T11:55:32;99820.63;;;15.96;52.90
41945;BME280;63122;52.424;13.458;2022-09-17T11:58:10;99827.03;;;16.41;50.17
41945;BME280;63122;52.424;13.458;2022-09-17T12:00:45;99826.84;;;16.29;51.38
41945;BME280;63122;52.424;13.458;2022-09-17T12:03:23;99819.06;;;16.80;49.93
41945;BME280;63122;52.424;13.458;2022-09-17T12:06:01;99809.09;;;17.07;48.58
41945;BME280;63122;52.424;13.458;2022-09-17T12:08:43;99806.88;;;17.04;47.48
41945;BME280;63122;52.424;13.458;2022-09-17T12:11:29;99801.47;;;17.11;48.34
41945;BME280;63122;52.424;13.458;2022-09-17T12:15:06;99814.44;;;16.62;47.83
41945;BME280;63122;52.424;13.458;2022-09-17T12:17:49;99811.97;;;16.60;48.66
41945;BME280;63122;52.424;13.458;2022-09-17T12:20:44;99814.41;;;16.68;47.66
41945;BME280;63122;52.424;13.458;2022-09-17T12:23:20;99809.84;;;16.82;46.88
41945;BME280;63122;52.424;13.458;2022-09-17T12:26:04;99821.22;;;16.64;46.84
41945;BME280;63122;52.424;13.458;2022-09-17T12:28:41;99805.00;;;16.66;47.75
41945;BME280;63122;52.424;13.458;2022-09-17T12:31:18;99803.53;;;16.70;48.01
41945;BME280;63122;52.424;13.458;2022-09-17T12:33:57;99807.44;;;16.29;54.66
41945;BME280;63122;52.424;13.458;2022-09-17T12:36:36;99810.47;;;16.32;56.00
41945;BME280;63122;52.424;13.458;2022-09-17T12:39:33;99801.88;;;16.30;54.83
41945;BME280;63122;52.424;13.458;2022-09-17T12:42:21;99803.63;;;16.57;53.18
41945;BME280;63122;52.424;13.458;2022-09-17T12:45:13;99798.75;;;16.86;51.97
41945;BME280;63122;52.424;13.458;2022-09-17T12:48:09;99794.78;;;17.02;52.55
41945;BME280;63122;52.424;13.458;2022-09-17T12:50:53;99786.03;;;17.70;51.40
41945;BME280;63122;52.424;13.458;2022-09-17T12:53:29;99787.75;;;18.21;49.24
41945;BME280;63122;52.424;13.458;2022-09-17T12:56:09;99775.41;;;18.57;48.12
41945;BME280;63122;52.424;13.458;2022-09-17T12:59:05;99781.50;;;19.07;45.85
41945;BME280;63122;52.424;13.458;2022-09-17T13:01:43;99765.97;;;19.75;44.91
41945;BME280;63122;52.424;13.458;2022-09-17T13:04:34;99763.97;;;19.59;42.09
41945;BME280;63122;52.424;13.458;2022-09-17T13:07:49;99779.78;;;19.12;43.23
41945;BME280;63122;52.424;13.458;2022-09-17T13:10:57;99791.94;;;18.17;43.31
41945;BME280;63122;52.424;13.458;2022-09-17T13:13:39;99781.00;;;17.99;45.76
41945;BME280;63122;52.424;13.458;2022-09-17T13:16:17;99797.97;;;17.87;47.21
41945;BME280;63122;52.424;13.458;2022-09-17T13:18:57;99792.50;;;17.56;46.30
41945;BME280;63122;52.424;13.458;2022-09-17T13:21:49;99791.94;;;17.29;44.63
41945;BME280;63122;52.424;13.458;2022-09-17T13:24:47;99788.00;;;17.56;43.60
41945;BME280;63122;52.424;13.458;2022-09-17T13:27:30;99805.91;;;17.93;39.94
41945;BME280;63122;52.424;13.458;2022-09-17T13:30:05;99792.25;;;17.39;38.12
41945;BME280;63122;52.424;13.458;2022-09-17T13:33:03;99790.22;;;17.60;37.68
41945;BME280;63122;52.424;13.458;2022-09-17T13:35:48;99783.53;;;18.32;37.93
41945;BME280;63122;52.424;13.458;2022-09-17T13:38:19;99780.94;;;19.28;36.40
41945;BME280;63122;52.424;13.458;2022-09-17T13:40:51;99780.25;;;19.93;35.67
41945;BME280;63122;52.424;13.458;2022-09-17T13:43:43;99773.50;;;19.78;35.28
41945;BME280;63122;52.424;13.458;2022-09-17T13:46:21;99781.63;;;19.24;35.98
41945;BME280;63122;52.424;13.458;2022-09-17T13:48:57;99773.19;;;19.27;36.24
41945;BME280;63122;52.424;13.458;2022-09-17T13:51:43;99778.56;;;18.96;36.52
41945;BME280;63122;52.424;13.458;2022-09-17T13:54:15;99772.94;;;18.25;37.70